Time;durP1;ratioP1;P1;durP2;ratioP2;P2;SDS_P1;SDS_P2;PMS_P1;PMS_P2;Temp;Humidity;BMP_temperature;BMP_pressure;BME280_temperature;BME280_humidity;BME280_pressure;Samples;Min_cycle;Max_cycle;Signal;HPM_P1;HPM_P2
2021/01/27 00:00:59;;;;;;;5.43;4.93;;;-0.50;99.90;;;;;;5073513;28;20797;-82
2021/01/27 00:03:25;;;;;;;4.73;4.23;;;-0.40;99.90;;;;;;5073455;28;20487;-82
2021/01/27 00:05:53;;;;;;;7.00;5.27;;;-0.50;99.90;;;;;;5073544;28;20433;-78
2021/01/27 00:08:20;;;;;;;9.27;5.43;;;-0.50;99.90;;;;;;5073343;28;20420;-78
2021/01/27 00:10:48;;;;;;;6.60;5.07;;;-0.50;99.90;;;;;;5073510;28;20545;-78
2021/01/27 00:13:17;;;;;;;7.47;5.20;;;-0.50;99.90;;;;;;5073054;28;20412;-78
2021/01/27 00:15:44;;;;;;;6.00;4.63;;;-0.60;99.90;;;;;;5073297;28;20470;-78
2021/01/27 00:18:13;;;;;;;4.60;3.90;;;-0.60;99.90;;;;;;5073074;28;20514;-78
2021/01/27 00:20:39;;;;;;;7.13;5.67;;;-0.70;99.90;;;;;;5073189;28;20465;-78
2021/01/27 00:23:06;;;;;;;6.63;4.90;;;-0.70;99.90;;;;;;5073236;28;20476;-78
2021/01/27 00:25:34;;;;;;;8.27;5.20;;;-0.80;99.90;;;;;;5073144;28;20460;-78
2021/01/27 00:28:02;;;;;;;7.57;4.90;;;-0.80;99.90;;;;;;5072776;28;20480;-78
2021/01/27 00:30:30;;;;;;;9.40;5.40;;;-0.80;99.90;;;;;;5072875;28;20875;-78
2021/01/27 00:32:57;;;;;;;7.90;5.50;;;-0.80;99.90;;;;;;5073174;28;20411;-78
2021/01/27 00:35:25;;;;;;;6.67;5.30;;;-0.70;99.90;;;;;;5073152;28;20570;-78
2021/01/27 00:37:52;;;;;;;10.67;6.20;;;-0.70;99.90;;;;;;5072879;28;20433;-79
2021/01/27 00:40:18;;;;;;;11.67;5.57;;;-0.70;99.90;;;;;;5073115;28;20465;-78
2021/01/27 00:42:45;;;;;;;6.30;5.70;;;-0.80;99.90;;;;;;5072805;28;20451;-78
2021/01/27 00:45:12;;;;;;;8.47;5.80;;;-0.80;99.90;;;;;;5072771;28;20928;-79
2021/01/27 00:47:39;;;;;;;7.93;5.60;;;-0.70;99.90;;;;;;5072800;28;20400;-79
2021/01/27 00:50:07;;;;;;;6.30;5.33;;;-0.70;99.90;;;;;;5072956;28;20474;-79
2021/01/27 00:52:33;;;;;;;10.83;5.60;;;-0.80;99.90;;;;;;5072939;28;20796;-79
2021/01/27 00:54:59;;;;;;;9.40;5.17;;;-0.80;99.90;;;;;;5072791;28;20793;-79
2021/01/27 00:57:25;;;;;;;12.23;6.27;;;-0.80;99.90;;;;;;5072702;28;20853;-79
2021/01/27 00:59:52;;;;;;;8.40;5.40;;;-0.90;99.90;;;;;;5072724;28;20469;-79
2021/01/27 01:02:19;;;;;;;11.13;4.73;;;-0.90;99.90;;;;;;5075297;28;20412;-79
2021/01/27 01:04:45;;;;;;;10.13;5.57;;;-0.80;99.90;;;;;;5076537;28;20993;-79
2021/01/27 01:07:11;;;;;;;9.10;5.57;;;-0.80;99.90;;;;;;5076814;28;20427;-83
2021/01/27 01:09:37;;;;;;;7.70;6.40;;;-0.80;99.90;;;;;;5076536;28;20534;-82
2021/01/27 01:12:05;;;;;;;8.30;5.23;;;-0.80;99.90;;;;;;5076458;28;20443;-83
2021/01/27 01:14:31;;;;;;;6.63;5.57;;;-0.80;99.90;;;;;;5076398;28;20461;-82
2021/01/27 01:16:57;;;;;;;7.30;5.30;;;-0.80;99.90;;;;;;5076293;28;20437;-83
2021/01/27 01:19:24;;;;;;;10.30;5.20;;;-0.80;99.90;;;;;;5076528;28;20540;-82
2021/01/27 01:21:50;;;;;;;7.10;5.13;;;-0.70;99.90;;;;;;5076608;28;20448;-79
2021/01/27 01:24:17;;;;;;;10.27;5.77;;;-0.70;99.90;;;;;;5076304;28;20488;-80
2021/01/27 01:26:43;;;;;;;7.53;4.73;;;-0.60;99.90;;;;;;5075835;28;20968;-80
2021/01/27 01:29:09;;;;;;;11.17;5.13;;;-0.60;99.90;;;;;;5074999;28;20477;-80
2021/01/27 01:31:36;;;;;;;7.60;5.40;;;-0.60;99.90;;;;;;5074679;28;20959;-79
2021/01/27 01:34:02;;;;;;;9.57;5.70;;;-0.60;99.90;;;;;;5074754;28;20798;-79
2021/01/27 01:36:29;;;;;;;7.43;6.10;;;-0.60;99.90;;;;;;5075292;28;20447;-79
2021/01/27 01:38:55;;;;;;;8.20;4.77;;;-0.60;99.90;;;;;;5074714;28;21091;-79
2021/01/27 01:41:22;;;;;;;10.30;5.03;;;-0.60;99.90;;;;;;5075177;28;20475;-78
2021/01/27 01:43:48;;;;;;;8.87;4.90;;;-0.50;99.90;;;;;;5074862;28;20459;-79
2021/01/27 01:46:16;;;;;;;9.97;5.27;;;-0.50;99.90;;;;;;5075376;28;20952;-79
2021/01/27 01:48:47;;;;;;;8.13;5.10;;;-0.50;99.90;;;;;;5075818;28;20452;-79
2021/01/27 01:51:20;;;;;;;6.30;4.40;;;-0.50;99.90;;;;;;5074857;28;20404;-79
2021/01/27 01:53:49;;;;;;;6.53;5.47;;;-0.50;99.90;;;;;;5074985;28;20418;-79
2021/01/27 01:56:20;;;;;;;6.93;4.63;;;-0.50;99.90;;;;;;5074480;28;20999;-79
2021/01/27 01:58:46;;;;;;;13.00;5.10;;;-0.50;99.90;;;;;;5074598;28;20458;-79
2021/01/27 02:01:13;;;;;;;8.73;5.07;;;-0.50;99.90;;;;;;5074688;28;20449;-79
2021/01/27 02:03:41;;;;;;;7.80;5.37;;;-0.50;99.90;;;;;;5074609;28;20481;-79
2021/01/27 02:06:09;;;;;;;8.10;5.20;;;-0.50;99.90;;;;;;5074526;28;20432;-79
2021/01/27 02:08:38;;;;;;;7.53;5.83;;;-0.50;99.90;;;;;;5074873;28;20460;-79
2021/01/27 02:11:05;;;;;;;7.17;5.20;;;-0.50;99.90;;;;;;5074376;28;20457;-80
2021/01/27 02:13:51;;;;;;;5.17;4.00;;;-0.60;99.90;;;;;;5073747;28;20445;-80
2021/01/27 02:16:26;;;;;;;10.83;5.00;;;-0.70;99.90;;;;;;5074380;28;20433;-79
2021/01/27 02:19:29;;;;;;;7.37;5.20;;;-0.70;99.90;;;;;;5074261;28;20464;-80
2021/01/27 02:22:42;;;;;;;8.47;4.80;;;-0.80;99.90;;;;;;5074328;28;20456;-79
2021/01/27 02:25:37;;;;;;;6.67;5.40;;;-0.80;99.90;;;;;;5073956;28;20898;-79
2021/01/27 02:28:07;;;;;;;8.33;5.33;;;-0.90;99.90;;;;;;5055377;28;549715;-79
2021/01/27 02:30:51;;;;;;;4.80;4.33;;;-0.80;99.90;;;;;;5074952;28;20223;-79
2021/01/27 02:33:48;;;;;;;8.10;5.70;;;-0.90;99.90;;;;;;5075292;28;20428;-79
2021/01/27 02:36:19;;;;;;;8.90;4.33;;;-0.90;99.90;;;;;;5075155;28;20433;-79
2021/01/27 02:38:51;;;;;;;9.03;6.00;;;-1.00;99.90;;;;;;5074988;28;20473;-79
2021/01/27 02:41:23;;;;;;;7.17;4.40;;;-1.00;99.90;;;;;;5086518;28;20452;-79
2021/01/27 02:43:54;;;;;;;7.03;5.47;;;-1.00;99.90;;;;;;5074860;28;20481;-79
2021/01/27 02:46:28;;;;;;;7.30;4.63;;;-1.00;99.90;;;;;;5074697;28;20440;-79
2021/01/27 02:48:59;;;;;;;7.50;5.70;;;-1.00;99.90;;;;;;5074816;28;20447;-80
2021/01/27 02:51:31;;;;;;;6.70;4.40;;;-1.00;99.90;;;;;;5075422;28;20408;-82
2021/01/27 02:54:05;;;;;;;7.97;5.00;;;-1.10;99.90;;;;;;5074659;28;20425;-82
2021/01/27 02:56:35;;;;;;;5.97;4.63;;;-1.00;99.90;;;;;;5074758;28;20463;-80
2021/01/27 02:59:06;;;;;;;7.97;4.83;;;-1.00;99.90;;;;;;5074194;28;20469;-80
2021/01/27 03:01:40;;;;;;;8.57;4.87;;;-1.00;99.90;;;;;;5075059;28;20445;-80
2021/01/27 03:04:12;;;;;;;6.20;4.80;;;-0.90;99.90;;;;;;5074426;28;20443;-79
2021/01/27 03:06:42;;;;;;;6.37;4.20;;;-0.90;99.90;;;;;;5074514;28;20440;-80
2021/01/27 03:09:15;;;;;;;5.60;4.47;;;-0.90;99.90;;;;;;5074413;28;20443;-80
2021/01/27 03:11:41;;;;;;;8.70;4.87;;;-0.90;99.90;;;;;;5074464;28;20396;-79
2021/01/27 03:14:09;;;;;;;5.47;4.97;;;-0.90;99.90;;;;;;5074910;28;20836;-80
2021/01/27 03:16:40;;;;;;;7.40;4.00;;;-1.00;99.90;;;;;;5074232;28;20683;-80
2021/01/27 03:19:10;;;;;;;8.80;4.87;;;-0.90;99.90;;;;;;5074414;28;20461;-82
2021/01/27 03:21:44;;;;;;;4.83;3.80;;;-1.00;99.90;;;;;;5074301;28;20793;-82
2021/01/27 03:24:17;;;;;;;5.13;4.20;;;-0.90;99.90;;;;;;5073530;28;20468;-82
2021/01/27 03:26:52;;;;;;;7.03;3.97;;;-0.90;99.90;;;;;;5073725;28;20416;-82
2021/01/27 03:29:28;;;;;;;8.00;4.57;;;-0.90;99.90;;;;;;5073873;28;20447;-82
2021/01/27 03:31:58;;;;;;;5.20;4.30;;;-0.80;99.90;;;;;;5074118;28;20874;-82
2021/01/27 03:34:32;;;;;;;5.13;3.57;;;-0.80;99.90;;;;;;5073975;28;20425;-80
2021/01/27 03:37:06;;;;;;;5.77;4.27;;;-0.80;99.90;;;;;;5073721;28;20976;-83
2021/01/27 03:39:37;;;;;;;6.80;3.90;;;-0.80;99.90;;;;;;5073708;28;20439;-82
2021/01/27 03:42:07;;;;;;;6.20;4.40;;;-0.70;99.90;;;;;;5073798;28;20445;-82
2021/01/27 03:44:38;;;;;;;5.20;4.33;;;-0.70;99.90;;;;;;5073464;28;20448;-82
2021/01/27 03:47:08;;;;;;;4.47;4.07;;;-0.70;99.90;;;;;;5073693;28;20432;-82
2021/01/27 03:49:38;;;;;;;4.93;4.17;;;-0.70;99.90;;;;;;5073830;28;20428;-83
2021/01/27 03:52:10;;;;;;;4.40;3.83;;;-0.70;99.90;;;;;;5073615;28;20788;-82
2021/01/27 03:54:39;;;;;;;6.30;4.40;;;-0.70;99.90;;;;;;5073723;28;20866;-83
2021/01/27 03:57:13;;;;;;;5.50;4.03;;;-0.70;99.90;;;;;;5073662;28;20445;-82
2021/01/27 03:59:39;;;;;;;5.43;3.97;;;-0.60;99.90;;;;;;5073458;28;20526;-82
2021/01/27 04:02:18;;;;;;;7.27;4.90;;;-0.60;99.90;;;;;;5073577;28;20432;-82
2021/01/27 04:04:45;;;;;;;4.03;3.60;;;-0.60;99.90;;;;;;5073536;28;20472;-83
2021/01/27 04:07:12;;;;;;;5.30;3.60;;;-0.60;99.90;;;;;;5073466;28;20448;-80
2021/01/27 04:09:38;;;;;;;4.40;3.90;;;-0.70;99.90;;;;;;5073138;28;20459;-80
2021/01/27 04:12:05;;;;;;;4.13;3.50;;;-0.60;99.90;;;;;;5073094;28;20959;-79
2021/01/27 04:14:32;;;;;;;4.10;3.53;;;-0.60;99.90;;;;;;5073237;28;20424;-80
2021/01/27 04:16:58;;;;;;;3.93;3.40;;;-0.50;99.90;;;;;;5073267;28;20459;-79
2021/01/27 04:19:24;;;;;;;4.07;3.27;;;-0.60;99.90;;;;;;5073013;28;20453;-80
2021/01/27 04:21:50;;;;;;;8.10;3.50;;;-0.60;99.90;;;;;;5073266;28;20460;-80
2021/01/27 04:24:17;;;;;;;3.23;2.97;;;-0.60;99.90;;;;;;5072923;28;20501;-80
2021/01/27 04:26:44;;;;;;;3.87;3.27;;;-0.60;99.90;;;;;;5072632;28;20945;-80
2021/01/27 04:29:10;;;;;;;3.30;3.10;;;-0.60;99.90;;;;;;5073189;28;20476;-79
2021/01/27 04:31:36;;;;;;;4.63;3.70;;;-0.50;99.90;;;;;;5073165;28;20423;-80
2021/01/27 04:34:02;;;;;;;5.27;3.60;;;-0.50;99.90;;;;;;5072938;28;20427;-80
2021/01/27 04:36:29;;;;;;;7.33;3.13;;;-0.50;99.90;;;;;;5072798;28;20436;-80
2021/01/27 04:38:55;;;;;;;3.50;2.97;;;-0.50;99.90;;;;;;5073191;28;20435;-80
2021/01/27 04:41:22;;;;;;;5.83;3.73;;;-0.60;99.90;;;;;;5073023;28;20461;-80
2021/01/27 04:43:49;;;;;;;4.57;3.20;;;-0.50;99.90;;;;;;5072604;28;21040;-80
2021/01/27 04:46:21;;;;;;;3.50;3.20;;;-0.50;99.90;;;;;;5073157;28;20415;-80
2021/01/27 04:48:56;;;;;;;5.07;2.93;;;-0.50;99.90;;;;;;5073113;28;20468;-80
2021/01/27 04:51:27;;;;;;;4.27;3.10;;;-0.60;99.90;;;;;;5075142;28;20461;-79
2021/01/27 04:54:19;;;;;;;6.37;3.67;;;-0.50;99.90;;;;;;5073091;28;20410;-79
2021/01/27 04:57:13;;;;;;;4.90;3.17;;;-0.50;99.90;;;;;;5072700;28;20426;-79
2021/01/27 04:59:53;;;;;;;3.73;3.10;;;-0.50;99.90;;;;;;5072871;28;20480;-79
2021/01/27 05:02:36;;;;;;;4.47;2.77;;;-0.50;99.90;;;;;;5073779;28;20461;-82
2021/01/27 05:05:07;;;;;;;3.20;2.90;;;-0.50;99.90;;;;;;5072778;28;20475;-83
2021/01/27 05:07:50;;;;;;;6.40;3.60;;;-0.40;99.90;;;;;;5073376;28;20407;-83
2021/01/27 05:10:22;;;;;;;2.83;2.73;;;-0.40;99.90;;;;;;5072861;28;20500;-83
2021/01/27 05:12:52;;;;;;;3.03;2.27;;;-0.40;99.90;;;;;;5072554;28;20944;-84
2021/01/27 05:15:19;;;;;;;5.87;2.73;;;-0.40;99.90;;;;;;5072480;28;20408;-83
2021/01/27 05:17:47;;;;;;;3.20;2.33;;;-0.40;99.90;;;;;;5072789;28;20431;-83
2021/01/27 05:20:14;;;;;;;2.77;2.33;;;-0.40;99.90;;;;;;5072351;28;20442;-79
2021/01/27 05:22:41;;;;;;;3.07;2.77;;;-0.40;99.90;;;;;;5072329;28;20423;-80
2021/01/27 05:25:12;;;;;;;8.00;3.03;;;-0.40;99.90;;;;;;5072558;28;20459;-79
2021/01/27 05:27:39;;;;;;;3.57;2.70;;;-0.30;99.90;;;;;;5072391;28;20492;-80
2021/01/27 05:30:13;;;;;;;10.23;3.07;;;-0.30;99.90;;;;;;5072354;28;20435;-80
2021/01/27 05:32:51;;;;;;;4.17;2.80;;;-0.30;99.90;;;;;;5072548;28;20411;-79
2021/01/27 05:35:27;;;;;;;4.33;2.83;;;-0.20;99.90;;;;;;5072495;28;20426;-80
2021/01/27 05:37:54;;;;;;;2.67;2.27;;;-0.30;99.90;;;;;;5072258;28;20387;-80
2021/01/27 05:40:29;;;;;;;4.70;3.37;;;-0.30;99.90;;;;;;5072456;28;20486;-80
2021/01/27 05:42:56;;;;;;;2.33;2.13;;;-0.30;99.90;;;;;;5072465;28;20490;-82
2021/01/27 05:45:31;;;;;;;4.63;3.03;;;-0.30;99.90;;;;;;5072471;28;20453;-83
2021/01/27 05:48:13;;;;;;;4.97;2.77;;;-0.30;99.90;;;;;;5072602;28;20865;-82
2021/01/27 05:50:40;;;;;;;3.23;3.00;;;-0.30;99.90;;;;;;5075683;28;20799;-82
2021/01/27 05:53:11;;;;;;;3.07;2.43;;;-0.30;99.90;;;;;;5075756;28;20399;-82
2021/01/27 05:55:46;;;;;;;3.77;2.63;;;-0.30;99.90;;;;;;5075912;28;20423;-83
2021/01/27 05:58:17;;;;;;;2.67;2.47;;;-0.30;99.90;;;;;;5076011;28;20387;-83
2021/01/27 06:00:44;;;;;;;3.67;2.93;;;-0.30;99.90;;;;;;5076596;28;20439;-82
2021/01/27 06:03:10;;;;;;;3.60;2.87;;;-0.30;99.90;;;;;;5075720;28;20445;-83
2021/01/27 06:05:39;;;;;;;3.17;2.60;;;-0.30;99.90;;;;;;5075743;28;20420;-82
2021/01/27 06:08:14;;;;;;;2.83;2.63;;;-0.20;99.90;;;;;;5075633;28;20419;-83
2021/01/27 06:10:42;;;;;;;5.30;3.23;;;-0.20;99.90;;;;;;5075588;28;20460;-82
2021/01/27 06:13:26;;;;;;;5.27;3.50;;;-0.20;99.90;;;;;;5075263;28;20497;-84
2021/01/27 06:15:54;;;;;;;4.00;2.53;;;-0.20;99.90;;;;;;5075323;28;20455;-82
2021/01/27 06:18:31;;;;;;;2.73;2.53;;;-0.20;99.90;;;;;;5075532;28;20800;-83
2021/01/27 06:21:33;;;;;;;4.57;3.00;;;-0.20;99.90;;;;;;5075303;28;20413;-83
2021/01/27 06:24:12;;;;;;;6.60;2.90;;;-0.30;99.90;;;;;;5075073;28;20525;-82
2021/01/27 06:27:11;;;;;;;4.60;3.47;;;-0.30;99.90;;;;;;5075293;28;20387;-82
2021/01/27 06:30:03;;;;;;;3.50;3.17;;;-0.30;99.90;;;;;;5075241;28;20469;-82
2021/01/27 06:32:56;;;;;;;6.10;3.57;;;-0.40;99.90;;;;;;5068374;28;20431;-83
2021/01/27 06:35:38;;;;;;;9.60;3.33;;;-0.40;99.90;;;;;;5062091;28;20453;-82
2021/01/27 06:38:18;;;;;;;4.70;2.80;;;-0.30;99.90;;;;;;5074907;28;20411;-80
2021/01/27 06:41:00;;;;;;;3.80;2.87;;;-0.30;99.90;;;;;;5075023;28;20510;-80
2021/01/27 06:43:58;;;;;;;3.60;2.50;;;-0.30;99.90;;;;;;5075388;28;20435;-80
2021/01/27 06:46:43;;;;;;;4.50;2.63;;;-0.20;99.90;;;;;;5070932;28;20777;-80
2021/01/27 06:49:43;;;;;;;4.13;2.60;;;-0.20;99.90;;;;;;5074795;28;20427;-79
2021/01/27 06:52:25;;;;;;;4.93;2.30;;;-0.10;99.90;;;;;;5074787;28;20391;-79
2021/01/27 06:55:11;;;;;;;7.57;3.00;;;-0.10;99.90;;;;;;5075158;28;20416;-80
2021/01/27 06:58:14;;;;;;;3.17;2.30;;;-0.10;99.90;;;;;;5074713;28;20454;-82
2021/01/27 07:00:43;;;;;;;3.03;2.40;;;0.00;99.90;;;;;;5074379;28;20468;-82
2021/01/27 07:03:44;;;;;;;3.13;2.63;;;-0.10;99.90;;;;;;5074584;28;20441;-83
2021/01/27 07:06:48;;;;;;;2.90;2.60;;;-0.10;99.90;;;;;;5074597;28;20424;-82
2021/01/27 07:09:49;;;;;;;2.40;2.20;;;-0.10;99.90;;;;;;5074447;28;20435;-80
2021/01/27 07:12:25;;;;;;;5.43;3.27;;;-0.10;99.90;;;;;;5074494;28;20384;-80
2021/01/27 07:15:15;;;;;;;2.90;2.50;;;-0.10;99.90;;;;;;5074061;28;20928;-79
2021/01/27 07:18:17;;;;;;;2.27;2.13;;;0.00;99.90;;;;;;5062639;28;20548;-79
2021/01/27 07:20:48;;;;;;;2.87;2.50;;;0.00;99.90;;;;;;5073936;28;20540;-80
2021/01/27 07:23:21;;;;;;;3.07;2.80;;;0.00;99.90;;;;;;5074244;28;20765;-80
2021/01/27 07:26:06;;;;;;;3.77;2.67;;;0.10;99.90;;;;;;5074074;28;20408;-79
2021/01/27 07:28:37;;;;;;;2.33;2.07;;;0.10;99.90;;;;;;5072603;28;20466;-80
2021/01/27 07:31:10;;;;;;;2.90;2.60;;;0.10;99.90;;;;;;5074000;28;20387;-80
2021/01/27 07:33:45;;;;;;;2.20;2.10;;;0.10;99.90;;;;;;5073718;28;20792;-80
2021/01/27 07:36:25;;;;;;;2.93;2.73;;;0.10;99.90;;;;;;5073978;28;20439;-80
2021/01/27 07:38:56;;;;;;;3.13;2.73;;;0.10;99.90;;;;;;5074051;28;20456;-80
2021/01/27 07:41:27;;;;;;;3.33;2.57;;;0.00;99.90;;;;;;5073846;28;20430;-80
2021/01/27 07:43:57;;;;;;;4.60;2.73;;;0.00;99.90;;;;;;5073749;28;20439;-78
2021/01/27 07:46:33;;;;;;;3.03;2.40;;;0.00;99.90;;;;;;5073645;28;20902;-80
2021/01/27 07:49:04;;;;;;;4.67;2.93;;;0.00;99.90;;;;;;5079715;28;20443;-82
2021/01/27 07:51:36;;;;;;;5.07;3.20;;;-0.10;99.90;;;;;;5083535;28;20462;-82
2021/01/27 07:54:07;;;;;;;3.13;2.70;;;-0.10;99.90;;;;;;5079973;28;20925;-79
2021/01/27 07:56:39;;;;;;;3.70;3.10;;;0.00;99.90;;;;;;5075789;28;20396;-80
2021/01/27 07:59:10;;;;;;;3.13;2.83;;;-0.10;99.90;;;;;;5073345;28;20497;-80
2021/01/27 08:01:42;;;;;;;4.17;3.50;;;-0.10;99.90;;;;;;5073603;28;20415;-80
2021/01/27 08:04:20;;;;;;;3.50;3.07;;;-0.10;99.90;;;;;;5073500;28;20479;-80
2021/01/27 08:06:49;;;;;;;4.40;3.17;;;-0.10;99.90;;;;;;5073422;28;20434;-80
2021/01/27 08:09:29;;;;;;;3.40;3.07;;;-0.10;99.90;;;;;;5073411;28;20479;-80
2021/01/27 08:12:12;;;;;;;3.50;3.20;;;-0.10;99.90;;;;;;5072780;28;20433;-80
2021/01/27 08:15:01;;;;;;;4.13;3.33;;;-0.10;99.90;;;;;;5073618;28;20441;-80
2021/01/27 08:18:01;;;;;;;4.43;3.90;;;-0.10;99.90;;;;;;5073118;28;20408;-80
2021/01/27 08:20:31;;;;;;;5.50;4.17;;;-0.10;99.90;;;;;;5052970;28;20456;-80
2021/01/27 08:22:58;;;;;;;5.07;3.80;;;-0.10;99.90;;;;;;5073384;28;20457;-80
2021/01/27 08:25:50;;;;;;;3.97;3.40;;;-0.10;99.90;;;;;;5073398;28;21004;-82
2021/01/27 08:28:18;;;;;;;7.47;3.97;;;-0.10;99.90;;;;;;5072915;28;20451;-80
2021/01/27 08:31:21;;;;;;;5.30;3.83;;;-0.10;99.90;;;;;;5072849;28;20993;-80
2021/01/27 08:34:05;;;;;;;4.50;3.80;;;0.00;99.90;;;;;;5072967;28;20441;-80
2021/01/27 08:37:12;;;;;;;5.93;4.23;;;0.00;99.90;;;;;;5072789;28;20429;-80
2021/01/27 08:39:38;;;;;;;5.10;3.80;;;0.00;99.90;;;;;;5072777;28;20471;-80
2021/01/27 08:42:22;;;;;;;7.67;3.73;;;-0.10;99.90;;;;;;5072979;28;20484;-80
2021/01/27 08:44:48;;;;;;;3.73;3.30;;;0.00;99.90;;;;;;5073105;28;20511;-80
2021/01/27 08:47:20;;;;;;;4.20;3.80;;;-0.10;99.90;;;;;;5073037;28;20459;-81
2021/01/27 08:49:56;;;;;;;5.70;3.23;;;-0.10;99.90;;;;;;5072991;28;20621;-80
2021/01/27 08:52:43;;;;;;;8.20;4.37;;;-0.10;99.90;;;;;;5073128;28;20770;-79
2021/01/27 08:55:35;;;;;;;4.23;3.17;;;-0.10;99.90;;;;;;5073009;28;20404;-79
2021/01/27 08:58:27;;;;;;;3.17;2.63;;;-0.10;99.90;;;;;;5073000;28;20414;-79
2021/01/27 09:00:55;;;;;;;4.30;3.50;;;-0.10;99.90;;;;;;5072967;28;20486;-79
2021/01/27 09:03:58;;;;;;;6.97;3.77;;;-0.10;99.90;;;;;;5072741;28;20419;-79
2021/01/27 09:06:44;;;;;;;3.77;3.23;;;-0.10;99.90;;;;;;5072925;28;20439;-79
2021/01/27 09:09:27;;;;;;;2.70;2.50;;;-0.20;99.90;;;;;;5072697;28;20455;-79
2021/01/27 09:12:02;;;;;;;5.40;3.63;;;-0.20;99.90;;;;;;5072518;28;20881;-79
2021/01/27 09:14:29;;;;;;;4.77;3.57;;;-0.20;99.90;;;;;;5072523;28;20407;-80
2021/01/27 09:16:56;;;;;;;4.90;3.50;;;-0.10;99.90;;;;;;5072982;28;20942;-81
2021/01/27 09:19:25;;;;;;;3.13;2.87;;;-0.20;99.90;;;;;;5072781;28;20849;-80
2021/01/27 09:22:03;;;;;;;4.40;2.80;;;-0.20;99.90;;;;;;5073204;28;20412;-80
2021/01/27 09:24:37;;;;;;;5.33;2.50;;;-0.20;99.90;;;;;;5076505;28;20435;-80
2021/01/27 09:27:18;;;;;;;2.87;2.40;;;-0.20;99.90;;;;;;5076250;28;20451;-80
2021/01/27 09:29:46;;;;;;;4.37;2.50;;;-0.20;99.90;;;;;;5076446;28;20440;-78
2021/01/27 09:32:15;;;;;;;3.13;2.10;;;-0.30;99.90;;;;;;5075985;28;20483;-79
2021/01/27 09:34:42;;;;;;;10.23;2.70;;;-0.30;99.90;;;;;;5075909;28;20936;-79
2021/01/27 09:37:14;;;;;;;6.33;2.40;;;-0.20;99.90;;;;;;5076368;28;20436;-83
2021/01/27 09:39:48;;;;;;;3.87;2.80;;;-0.20;99.90;;;;;;5074544;28;20518;-80
2021/01/27 09:42:20;;;;;;;2.30;2.10;;;-0.20;99.90;;;;;;5075918;28;20424;-81
2021/01/27 09:44:54;;;;;;;3.13;2.23;;;-0.10;99.90;;;;;;5076102;28;20482;-80
2021/01/27 09:47:20;;;;;;;3.43;2.37;;;-0.10;99.90;;;;;;5076070;28;20416;-80
2021/01/27 09:49:49;;;;;;;2.57;2.20;;;-0.10;99.90;;;;;;5075796;28;20860;-82
2021/01/27 09:52:18;;;;;;;3.57;1.90;;;-0.20;99.90;;;;;;5076065;28;20419;-82
2021/01/27 09:54:48;;;;;;;2.47;2.27;;;-0.20;99.90;;;;;;5075570;28;20396;-82
2021/01/27 09:57:18;;;;;;;2.40;2.20;;;-0.20;99.90;;;;;;5077606;28;20491;-79
2021/01/27 09:59:49;;;;;;;2.10;1.90;;;-0.20;99.90;;;;;;5086305;28;20473;-79
2021/01/27 10:02:25;;;;;;;2.07;1.87;;;-0.10;99.90;;;;;;5075649;28;20857;-79
2021/01/27 10:04:52;;;;;;;3.40;2.40;;;-0.10;99.90;;;;;;5075569;28;20812;-82
2021/01/27 10:07:22;;;;;;;2.43;2.33;;;-0.10;99.90;;;;;;5075420;28;20812;-82
2021/01/27 10:09:52;;;;;;;2.37;2.17;;;0.00;99.90;;;;;;5075409;28;20431;-82
2021/01/27 10:12:22;;;;;;;2.03;1.00;;;0.00;99.90;;;;;;5075713;28;20433;-82
2021/01/27 10:14:58;;;;;;;1.70;1.60;;;0.00;99.90;;;;;;5075971;28;20425;-82
2021/01/27 10:17:28;;;;;;;2.07;1.50;;;0.00;99.90;;;;;;5075597;28;20436;-82
2021/01/27 10:20:06;;;;;;;2.77;1.57;;;0.00;99.90;;;;;;5075352;28;20461;-79
2021/01/27 10:22:38;;;;;;;3.20;1.77;;;0.20;99.90;;;;;;5075336;28;20424;-79
2021/01/27 10:25:25;;;;;;;2.20;1.33;;;0.20;99.90;;;;;;5075230;28;20446;-79
2021/01/27 10:28:04;;;;;;;1.73;1.00;;;0.30;99.90;;;;;;5074827;28;20996;-80
2021/01/27 10:30:44;;;;;;;1.60;1.40;;;0.40;99.90;;;;;;5074992;28;20955;-79
2021/01/27 10:33:30;;;;;;;1.20;1.10;;;0.50;99.90;;;;;;5075286;28;20487;-81
2021/01/27 10:35:56;;;;;;;1.20;1.10;;;0.50;99.90;;;;;;5074812;28;20384;-82
2021/01/27 10:38:25;;;;;;;2.60;1.40;;;0.50;99.90;;;;;;5075451;28;20466;-82
2021/01/27 10:41:07;;;;;;;2.03;1.47;;;0.60;99.90;;;;;;5075233;28;20433;-82
2021/01/27 10:43:34;;;;;;;1.03;1.03;;;0.50;99.90;;;;;;5074875;28;20431;-82
2021/01/27 10:46:01;;;;;;;1.30;1.20;;;0.50;99.90;;;;;;5075369;28;20411;-82
2021/01/27 10:48:28;;;;;;;7.70;1.23;;;0.50;99.90;;;;;;5074738;28;20408;-82
2021/01/27 10:51:02;;;;;;;1.27;0.83;;;0.50;99.90;;;;;;5074526;28;20455;-82
2021/01/27 10:53:30;;;;;;;1.83;1.17;;;0.40;99.90;;;;;;5075310;28;20404;-78
2021/01/27 10:55:57;;;;;;;1.20;1.10;;;0.40;99.90;;;;;;5074674;28;20921;-78
2021/01/27 10:58:24;;;;;;;0.93;0.93;;;0.40;99.90;;;;;;5074677;28;20426;-78
2021/01/27 11:00:51;;;;;;;1.20;1.10;;;0.50;99.90;;;;;;5074733;28;20399;-78
2021/01/27 11:03:18;;;;;;;1.10;1.10;;;0.60;99.90;;;;;;5074774;28;20448;-78
2021/01/27 11:05:45;;;;;;;1.53;1.20;;;0.70;99.90;;;;;;5074615;28;20546;-78
2021/01/27 11:08:14;;;;;;;1.50;1.40;;;0.70;99.90;;;;;;5074540;28;20415;-78
2021/01/27 11:10:40;;;;;;;1.00;0.90;;;0.70;99.90;;;;;;5074445;28;20462;-81
2021/01/27 11:13:07;;;;;;;1.83;1.73;;;0.70;99.90;;;;;;5074525;28;20395;-78
2021/01/27 11:15:33;;;;;;;1.13;1.13;;;0.70;99.90;;;;;;5074420;28;20408;-78
2021/01/27 11:17:59;;;;;;;1.27;1.20;;;0.80;99.90;;;;;;5074009;28;20929;-77
2021/01/27 11:20:27;;;;;;;2.73;1.70;;;0.70;99.90;;;;;;5073885;28;20972;-78
2021/01/27 11:22:54;;;;;;;1.50;1.40;;;0.80;99.90;;;;;;5073870;28;20414;-78
2021/01/27 11:25:25;;;;;;;1.37;1.27;;;0.80;99.90;;;;;;5074126;28;20437;-78
2021/01/27 11:27:52;;;;;;;3.53;1.43;;;0.90;99.90;;;;;;5073890;28;20546;-77
2021/01/27 11:30:23;;;;;;;5.03;1.50;;;0.80;99.90;;;;;;5073929;28;20446;-77
2021/01/27 11:32:51;;;;;;;3.77;1.67;;;0.80;99.90;;;;;;5073957;28;20433;-77
2021/01/27 11:35:18;;;;;;;1.73;1.60;;;0.80;99.90;;;;;;5073862;28;20421;-77
2021/01/27 11:37:46;;;;;;;2.13;1.50;;;0.80;99.90;;;;;;5074026;28;20411;-77
2021/01/27 11:40:14;;;;;;;1.73;1.63;;;0.90;99.90;;;;;;5073836;28;20452;-77
2021/01/27 11:42:41;;;;;;;1.47;1.37;;;0.90;99.90;;;;;;5073781;28;20408;-77
2021/01/27 11:45:08;;;;;;;1.60;1.43;;;0.90;99.90;;;;;;5073428;28;20473;-77
2021/01/27 11:47:35;;;;;;;1.40;1.20;;;0.90;99.90;;;;;;5072611;28;20416;-77
2021/01/27 11:50:02;;;;;;;1.73;1.10;;;0.90;99.90;;;;;;5073644;28;20514;-82
2021/01/27 11:52:29;;;;;;;4.97;3.70;;;0.90;99.90;;;;;;5073950;28;20426;-77
2021/01/27 11:54:56;;;;;;;2.10;1.80;;;0.90;99.90;;;;;;5073777;28;20430;-77
2021/01/27 11:57:22;;;;;;;1.40;1.30;;;0.90;99.90;;;;;;5073721;28;20457;-77
2021/01/27 11:59:49;;;;;;;1.77;1.20;;;1.00;99.90;;;;;;5073490;28;20435;-77
2021/01/27 12:02:15;;;;;;;2.50;1.30;;;1.10;99.90;;;;;;5074011;28;20461;-77
2021/01/27 12:04:41;;;;;;;2.00;1.23;;;1.00;99.90;;;;;;5073463;28;20439;-76
2021/01/27 12:07:08;;;;;;;2.10;1.40;;;1.10;99.90;;;;;;5073320;28;20900;-76
2021/01/27 12:09:35;;;;;;;1.87;1.03;;;1.10;99.90;;;;;;5073360;28;20461;-76
2021/01/27 12:12:03;;;;;;;1.80;1.70;;;1.10;99.90;;;;;;5073493;28;20540;-77
2021/01/27 12:14:29;;;;;;;1.90;1.40;;;1.00;99.90;;;;;;5073076;28;20819;-77
2021/01/27 12:16:56;;;;;;;1.40;1.30;;;1.00;99.90;;;;;;5073543;28;20380;-77
2021/01/27 12:19:22;;;;;;;2.47;2.27;;;1.00;99.90;;;;;;5073391;28;20507;-77
2021/01/27 12:21:48;;;;;;;1.50;1.40;;;1.00;99.90;;;;;;5073501;28;20903;-77
2021/01/27 12:24:15;;;;;;;3.13;1.30;;;0.90;99.90;;;;;;5073455;28;20468;-77
2021/01/27 12:26:41;;;;;;;3.10;1.50;;;0.90;99.90;;;;;;5073234;28;20438;-77
2021/01/27 12:29:08;;;;;;;1.73;1.63;;;1.00;99.90;;;;;;5072939;28;20475;-77
2021/01/27 12:31:35;;;;;;;1.70;1.60;;;1.00;99.90;;;;;;5073309;28;20792;-77
2021/01/27 12:34:01;;;;;;;1.20;1.10;;;1.00;99.90;;;;;;5073029;28;20903;-82
2021/01/27 12:36:28;;;;;;;2.03;1.23;;;1.00;99.90;;;;;;5072941;28;20779;-82
2021/01/27 12:38:54;;;;;;;1.90;1.30;;;0.90;99.90;;;;;;5073469;28;20439;-82
2021/01/27 12:41:20;;;;;;;1.60;1.50;;;0.80;99.90;;;;;;5073421;28;20408;-82
2021/01/27 12:43:47;;;;;;;2.50;1.37;;;0.80;99.90;;;;;;5073362;28;20408;-82
2021/01/27 12:46:14;;;;;;;2.00;1.90;;;0.90;99.90;;;;;;5073316;28;20449;-82
2021/01/27 12:48:40;;;;;;;2.67;1.87;;;0.90;99.90;;;;;;5073235;28;20429;-83
2021/01/27 12:51:06;;;;;;;1.87;1.77;;;0.80;99.90;;;;;;5073391;28;20425;-83
2021/01/27 12:53:33;;;;;;;1.63;1.50;;;0.80;99.90;;;;;;5073125;28;20457;-83
2021/01/27 12:55:59;;;;;;;5.47;2.43;;;0.80;99.90;;;;;;5072831;28;20449;-83
2021/01/27 12:58:25;;;;;;;3.23;2.20;;;0.80;99.90;;;;;;5075906;28;20415;-83
2021/01/27 13:00:52;;;;;;;3.53;2.33;;;0.80;99.90;;;;;;5076688;28;20391;-83
2021/01/27 13:03:19;;;;;;;2.73;2.53;;;0.80;99.90;;;;;;5076697;28;20440;-83
2021/01/27 13:05:45;;;;;;;2.10;2.00;;;0.80;99.90;;;;;;5076704;28;20444;-84
2021/01/27 13:08:11;;;;;;;2.47;2.30;;;0.80;99.90;;;;;;5076402;28;20471;-83
2021/01/27 13:10:41;;;;;;;2.60;2.40;;;0.80;99.90;;;;;;5076214;28;20978;-83
2021/01/27 13:13:08;;;;;;;2.87;2.57;;;0.80;99.90;;;;;;5077427;28;20749;-83
2021/01/27 13:15:34;;;;;;;3.57;2.40;;;0.80;99.90;;;;;;5076613;28;20416;-76
2021/01/27 13:18:01;;;;;;;2.50;2.30;;;0.80;99.90;;;;;;5076695;28;20399;-75